Home > Products > Valid Products > MTR

000
SAUS43 KUNR 011958
MTR2WX
METAR K2WX 011956Z AUTO 29015G21KT 35/01 A2989 RMK AO1 WSHFT 1843
SLP092 T03500011





000
SAUS43 KUNR 011957
MTRD07
METAR KD07 011956Z AUTO 33016G27KT 36/M01 A2991 RMK AO1 PK WND
33028/1939 SLP107 T03561011





000
SAUS43 KUNR 011904
MTR2WX
SPECI K2WX 011903Z AUTO 30012G20KT 34/01 A2990 RMK AO1 WSHFT 1843
T03390011





000
SAUS43 KUNR 011903 COR
MTR2WX
METAR K2WX 011856Z AUTO 36014G20KT 34/01 A2990 RMK AO1 WSHFT 1841
SLP094 T03390011





000
SAUS43 KUNR 011903 COR
MTR2WX
METAR K2WX 011856Z AUTO 36014G20KT 34/01 A2990 RMK AO1 WSHFT 1841
SLP094 T03390011





000
SAUS43 KUNR 011858 COR
MTR2WX
METAR K2WX 011856Z AUTO 36014G20KT 34/01 A2990 RMK AO1 WSHFT 1841
SLP094 T03390011





000
SAUS43 KUNR 011858 COR
MTR2WX
METAR K2WX 011856Z AUTO 36014G20KT 34/01 A2990 RMK AO1 WSHFT 1841
SLP094 T03390011





000
SAUS43 KUNR 011858
MTRD07
METAR KD07 011856Z AUTO 32016KT 35/M01 A2992 RMK AO1 SLP112
T03501011





000
SAUS43 KUNR 011858
MTRD07
METAR KD07 011856Z AUTO 32016KT 35/M01 A2992 RMK AO1 SLP112
T03501011





000
SAUS43 KUNR 011757
MTR2WX
METAR K2WX 011756Z AUTO 34015G20KT 33/01 A2991 RMK AO1 SLP099
T03330011 10333 20167 56006





000
SAUS43 KUNR 011757
MTRD07
METAR KD07 011756Z AUTO 34009KT 34/04 A2993 RMK AO1 SLP115 T03440039
10344 20194 58006





000
SAUS43 KUNR 011757
MTRD07
METAR KD07 011756Z AUTO 34009KT 34/04 A2993 RMK AO1 SLP115 T03440039
10344 20194 58006





000
SAUS43 KUNR 011757
MTR2WX
METAR K2WX 011756Z AUTO 34015G20KT 33/01 A2991 RMK AO1 SLP099
T03330011 10333 20167 56006





000
SAUS43 KUNR 011657
MTRD07
METAR KD07 011656Z AUTO 30008KT 32/08 A2994 RMK AO1 SLP119 T03170083





000
SAUS43 KUNR 011657
MTR2WX
METAR K2WX 011656Z AUTO 36012KT 33/00 A2992 RMK AO1 SLP101 T03280000





000
SAUS43 KUNR 011558
MTR2WX
METAR K2WX 011556Z AUTO 31012KT 32/03 A2991 RMK AO1 SLP100 T03170028





000
SAUS43 KUNR 011557
MTRD07
METAR KD07 011556Z AUTO 27010G19KT 29/13 A2994 RMK AO1 SLP119
T02940128





000
SAUS43 KUNR 011458
MTR2WX
METAR K2WX 011456Z AUTO 28009KT 29/09 A2993 RMK AO1 SLP106 T02890089
58001





000
SAUS43 KUNR 011458
MTRD07
METAR KD07 011456Z AUTO 23012KT 27/14 A2995 RMK AO1 SLP122 T02720139
50002





000
SAUS43 KUNR 011458
MTR2WX
METAR K2WX 011456Z AUTO 28009KT 29/09 A2993 RMK AO1 SLP106 T02890089
58001





000
SAUS43 KUNR 011358
MTR2WX
METAR K2WX 011356Z AUTO 25006KT 22/12 A2993 RMK AO1 SLP111 T02220122





000
SAUS43 KUNR 011358
MTR2WX
METAR K2WX 011356Z AUTO 25006KT 22/12 A2993 RMK AO1 SLP111 T02220122





000
SAUS43 KUNR 011357
MTRD07
METAR KD07 011356Z AUTO 23013KT 24/14 A2995 RMK AO1 SLP125 T02390139





000
SAUS43 KUNR 011357
MTRD07
METAR KD07 011356Z AUTO 23013KT 24/14 A2995 RMK AO1 SLP125 T02390139





000
SAUS43 KUNR 011258
MTR2WX
METAR K2WX 011256Z AUTO 26007KT 19/11 A2993 RMK AO1 SLP109 T01940106





000
SAUS43 KUNR 011257
MTRD07
METAR KD07 011256Z AUTO 21012KT 21/13 A2994 RMK AO1 SLP120 T02110133





000
SAUS43 KUNR 011158
MTR2WX
METAR K2WX 011156Z AUTO 29004KT 18/10 A2993 RMK AO1 SLP110 T01780100
10217 20167 58006





000
SAUS43 KUNR 011158
MTR2WX
METAR K2WX 011156Z AUTO 29004KT 18/10 A2993 RMK AO1 SLP110 T01780100
10217 20167 58006





000
SAUS43 KUNR 011157
MTRD07
METAR KD07 011156Z AUTO 19012KT 19/13 A2995 RMK AO1 SLP120 T01940133
10217 20167 56018





000
SAUS43 KUNR 011157
MTRD07
METAR KD07 011156Z AUTO 19012KT 19/13 A2995 RMK AO1 SLP120 T01940133
10217 20167 56018





000
SAUS43 KUNR 011058
MTR2WX
METAR K2WX 011056Z AUTO 25009KT 18/10 A2994 RMK AO1 SLP110 T01830100





000
SAUS43 KUNR 011058
MTR2WX
METAR K2WX 011056Z AUTO 25009KT 18/10 A2994 RMK AO1 SLP110 T01830100





000
SAUS43 KUNR 011057
MTRD07
METAR KD07 011056Z AUTO 20011KT 20/13 A2995 RMK AO1 SLP123 T02000128





000
SAUS43 KUNR 011057
MTRD07
METAR KD07 011056Z AUTO 20011KT 20/13 A2995 RMK AO1 SLP123 T02000128





000
SAUS43 KUNR 010958
MTRD07
METAR KD07 010956Z AUTO 19014KT 21/12 A2998 RMK AO1 SLP131 T02060122





000
SAUS43 KUNR 010958
MTRD07
METAR KD07 010956Z AUTO 19014KT 21/12 A2998 RMK AO1 SLP131 T02060122





000
SAUS43 KUNR 010957
MTR2WX
METAR K2WX 010956Z AUTO 27007KT 18/10 A2995 RMK AO1 SLP115 T01780100





000
SAUS43 KUNR 010957
MTR2WX
METAR K2WX 010956Z AUTO 27007KT 18/10 A2995 RMK AO1 SLP115 T01780100





000
SAUS43 KUNR 010858
MTRD07
METAR KD07 010856Z AUTO 20016KT 21/11 A3000 RMK AO1 SLP139 T02110111
58020





000
SAUS43 KUNR 010857
MTR2WX
METAR K2WX 010856Z AUTO 20007KT 18/10 A2995 RMK AO1 SLP115 T01830100
57017





000
SAUS43 KUNR 010757
MTRD07
METAR KD07 010756Z AUTO 19013KT 19/08 A3003 RMK AO1 SLP149 T01890078





000
SAUS43 KUNR 010757
MTR2WX
METAR K2WX 010756Z AUTO 16006KT 18/09 A2997 RMK AO1 SLP122 T01830094





000
SAUS43 KUNR 010757
MTRD07
METAR KD07 010756Z AUTO 19013KT 19/08 A3003 RMK AO1 SLP149 T01890078





000
SAUS43 KUNR 010757
MTR2WX
METAR K2WX 010756Z AUTO 16006KT 18/09 A2997 RMK AO1 SLP122 T01830094





000
SAUS43 KUNR 010658
MTR2WX
METAR K2WX 010656Z AUTO 16009KT 21/09 A2999 RMK AO1 SLP127 T02060089
403330117





000
SAUS43 KUNR 010657
MTRD07
METAR KD07 010656Z AUTO 17012KT 17/07 A3005 RMK AO1 SLP160 T01670067
403330128





000
SAUS43 KUNR 010558
MTRD07
METAR KD07 010556Z AUTO 17012KT 18/07 A3007 RMK AO1 SLP164 T01830067
10317 20178 58002





000
SAUS43 KUNR 010558
MTR2WX
METAR K2WX 010556Z AUTO 15006KT 20/08 A3001 RMK AO1 SLP135 T02000083
10317 20194 58002





000
SAUS43 KUNR 010558
MTR2WX
METAR K2WX 010556Z AUTO 15006KT 20/08 A3001 RMK AO1 SLP135 T02000083
10317 20194 58002





000
SAUS43 KUNR 010558
MTRD07
METAR KD07 010556Z AUTO 17012KT 18/07 A3007 RMK AO1 SLP164 T01830067
10317 20178 58002





000
SAUS43 KUNR 010458
MTR2WX
METAR K2WX 010456Z AUTO 18009KT 21/08 A3001 RMK AO1 SLP135 T02110083





000
SAUS43 KUNR 010458
MTR2WX
METAR K2WX 010456Z AUTO 18009KT 21/08 A3001 RMK AO1 SLP135 T02110083





000
SAUS43 KUNR 010457
MTRD07
METAR KD07 010456Z AUTO 15011KT 22/06 A3007 RMK AO1 SLP163 T02170061





000
SAUS43 KUNR 010457
MTRD07
METAR KD07 010456Z AUTO 15011KT 22/06 A3007 RMK AO1 SLP163 T02170061





000
SAUS43 KUNR 010357
MTR2WX
METAR K2WX 010356Z AUTO 14009KT 21/09 A3001 RMK AO1 SLP139 T02110089





000
SAUS43 KUNR 010357
MTRD07
METAR KD07 010356Z AUTO 13011KT 23/06 A3008 RMK AO1 SLP167 T02330061





000
SAUS43 KUNR 010257
MTRD07
METAR KD07 010256Z AUTO 13011KT 25/06 A3007 RMK AO1 SLP166 T02500061
55005





000
SAUS43 KUNR 010257
MTR2WX
METAR K2WX 010256Z AUTO 13011KT 23/08 A3001 RMK AO1 SLP140 T02330083
55004





000
SAUS43 KUNR 010257
MTRD07
METAR KD07 010256Z AUTO 13011KT 25/06 A3007 RMK AO1 SLP166 T02500061
55005





000
SAUS43 KUNR 010257
MTR2WX
METAR K2WX 010256Z AUTO 13011KT 23/08 A3001 RMK AO1 SLP140 T02330083
55004





000
SAUS43 KUNR 010157
MTRD07
METAR KD07 010156Z AUTO 10007KT 26/06 A3007 RMK AO1 SLP166 T02610061





000
SAUS43 KUNR 010157
MTR2WX
METAR K2WX 010156Z AUTO 14010KT 27/08 A3001 RMK AO1 SLP140 T02670078





000
SAUS43 KUNR 010157
MTR2WX
METAR K2WX 010156Z AUTO 14010KT 27/08 A3001 RMK AO1 SLP140 T02670078





000
SAUS43 KUNR 010057
MTR2WX
METAR K2WX 010056Z AUTO 13009KT 30/07 A3001 RMK AO1 SLP142 T03000067





000
SAUS43 KUNR 010057
MTRD07
METAR KD07 010056Z AUTO 11006KT 31/03 A3008 RMK AO1 SLP169 T03060033





000
SAUS43 KUNR 312357
MTR2WX
METAR K2WX 312356Z AUTO 11010KT 32/05 A3002 RMK AO1 SLP143 T03170050
10333 20294 56021





000
SAUS43 KUNR 312357
MTRD07
METAR KD07 312356Z AUTO 32/03 A3009 RMK AO1 SLP173 T03220033 10333
20306 58015





000
SAUS43 KUNR 312357
MTR2WX
METAR K2WX 312356Z AUTO 11010KT 32/05 A3002 RMK AO1 SLP143 T03170050
10333 20294 56021





000
SAUS43 KUNR 312357
MTRD07
METAR KD07 312356Z AUTO 32/03 A3009 RMK AO1 SLP173 T03220033 10333
20306 58015





000
SAUS43 KUNR 312258
MTR2WX
METAR K2WX 312256Z AUTO 15010KT 32/04 A3005 RMK AO1 SLP147 T03220044





000
SAUS43 KUNR 312258
MTR2WX
METAR K2WX 312256Z AUTO 15010KT 32/04 A3005 RMK AO1 SLP147 T03220044





000
SAUS43 KUNR 312257
MTRD07
METAR KD07 312256Z AUTO 02009KT 33/03 A3011 RMK AO1 SLP180 T03280033





000
SAUS43 KUNR 312157
MTR2WX
METAR K2WX 312156Z AUTO 17007KT 33/04 A3006 RMK AO1 SLP154 T03280039





000
SAUS43 KUNR 312157
MTRD07
METAR KD07 312156Z AUTO 02007KT 33/03 A3012 RMK AO1 SLP183 T03280033





000
SAUS43 KUNR 312057
MTR2WX
METAR K2WX 312056Z AUTO 22010KT 33/04 A3009 RMK AO1 SLP163 T03280039
58017





000
SAUS43 KUNR 312057
MTRD07
METAR KD07 312056Z AUTO 04008KT 020V080 32/01 A3014 RMK AO1 SLP189
T03220011 58015





000
SAUS43 KUNR 312057
MTR2WX
METAR K2WX 312056Z AUTO 22010KT 33/04 A3009 RMK AO1 SLP163 T03280039
58017





000
SAUS43 KUNR 312057
MTRD07
METAR KD07 312056Z AUTO 04008KT 020V080 32/01 A3014 RMK AO1 SLP189
T03220011 58015





000
SAUS43 KUNR 311957
MTRD07
METAR KD07 311956Z AUTO 32/04 A3015 RMK AO1 SLP192 T03220044





000
SAUS43 KUNR 311957
MTRD07
METAR KD07 311956Z AUTO 32/04 A3015 RMK AO1 SLP192 T03220044





000
SAUS43 KUNR 311957
MTR2WX
METAR K2WX 311956Z AUTO VRB05KT 32/03 A3011 RMK AO1 SLP172 T03170033





000
SAUS43 KUNR 311957
MTR2WX
METAR K2WX 311956Z AUTO VRB05KT 32/03 A3011 RMK AO1 SLP172 T03170033





000
SAUS43 KUNR 311858
MTR2WX
METAR K2WX 311856Z AUTO 12006KT 31/04 A3013 RMK AO1 SLP179 T03110039





000
SAUS43 KUNR 311858
MTR2WX
METAR K2WX 311856Z AUTO 12006KT 31/04 A3013 RMK AO1 SLP179 T03110039





000
SAUS43 KUNR 311857
MTRD07
METAR KD07 311856Z AUTO 04008KT 32/03 A3017 RMK AO1 SLP198 T03170033





000
SAUS43 KUNR 311857
MTRD07
METAR KD07 311856Z AUTO 04008KT 32/03 A3017 RMK AO1 SLP198 T03170033





000
SAUS43 KUNR 311758
MTRD07
METAR KD07 311756Z AUTO 01006KT 31/05 A3018 RMK AO1 SLP204 T03060050
10311 20144 58007





000
SAUS43 KUNR 311758
MTR2WX
METAR K2WX 311756Z AUTO 07008KT 30/05 A3014 RMK AO1 SLP185 T03000050
10306 20117 56011





000
SAUS43 KUNR 311657
MTR2WX
METAR K2WX 311656Z AUTO 29/05 A3016 RMK AO1 SLP187 T02940050





000
SAUS43 KUNR 311657
MTRD07
METAR KD07 311656Z AUTO 08003KT 29/09 A3020 RMK AO1 SLP209 T02890089





000
SAUS43 KUNR 311657
MTRD07
METAR KD07 311656Z AUTO 08003KT 29/09 A3020 RMK AO1 SLP209 T02890089





000
SAUS43 KUNR 311657
MTR2WX
METAR K2WX 311656Z AUTO 29/05 A3016 RMK AO1 SLP187 T02940050





000
SAUS43 KUNR 311558
MTR2WX
METAR K2WX 311556Z AUTO VRB03KT 27/09 A3016 RMK AO1 SLP192 T02720094





000
SAUS43 KUNR 311557
MTRD07
METAR KD07 311556Z AUTO VRB05KT 26/10 A3020 RMK AO1 SLP213 T02610100





000
SAUS43 KUNR 311458
MTRD07
METAR KD07 311456Z AUTO 12004KT 24/11 A3021 RMK AO1 SLP215 T02440111
50001





000
SAUS43 KUNR 311458
MTRD07
METAR KD07 311456Z AUTO 12004KT 24/11 A3021 RMK AO1 SLP215 T02440111
50001





000
SAUS43 KUNR 311458
MTR2WX
METAR K2WX 311456Z AUTO 00000KT 23/10 A3018 RMK AO1 SLP199 T02330100
51001





000
SAUS43 KUNR 311458
MTR2WX
METAR K2WX 311456Z AUTO 00000KT 23/10 A3018 RMK AO1 SLP199 T02330100
51001





000
SAUS43 KUNR 311358
MTR2WX
METAR K2WX 311356Z AUTO 00000KT 18/10 A3018 RMK AO1 SLP202 T01780100





000
SAUS43 KUNR 311357
MTRD07
METAR KD07 311356Z AUTO 00000KT 21/12 A3021 RMK AO1 SLP217 T02060117





000
SAUS43 KUNR 311258
MTR2WX
METAR K2WX 311256Z AUTO 25004KT 13/08 A3018 RMK AO1 SLP200 T01330083





000
SAUS43 KUNR 311258
MTRD07
METAR KD07 311256Z AUTO 00000KT 18/10 A3021 RMK AO1 SLP215 T01780100





000
SAUS43 KUNR 311158
MTR2WX
METAR K2WX 311156Z AUTO 00000KT 17/08 A3018 RMK AO1 SLP196 T01720078
10194 20150 53001





000
SAUS43 KUNR 311158
MTR2WX
METAR K2WX 311156Z AUTO 00000KT 17/08 A3018 RMK AO1 SLP196 T01720078
10194 20150 53001





000
SAUS43 KUNR 311157
MTRD07
METAR KD07 311156Z AUTO 05005KT 14/10 A3020 RMK AO1 SLP213 T01440100
10206 20128 51004





000
SAUS43 KUNR 311157
MTRD07
METAR KD07 311156Z AUTO 05005KT 14/10 A3020 RMK AO1 SLP213 T01440100
10206 20128 51004





000
SAUS43 KUNR 311057
MTR2WX
METAR K2WX 311056Z AUTO 02003KT 18/08 A3017 RMK AO1 SLP193 T01830078





000
SAUS43 KUNR 311057
MTRD07
METAR KD07 311056Z AUTO 02003KT 13/10 A3020 RMK AO1 SLP213 T01330100





000
SAUS43 KUNR 311057
MTRD07
METAR KD07 311056Z AUTO 02003KT 13/10 A3020 RMK AO1 SLP213 T01330100





000
SAUS43 KUNR 311057
MTR2WX
METAR K2WX 311056Z AUTO 02003KT 18/08 A3017 RMK AO1 SLP193 T01830078





000
SAUS43 KUNR 310958
MTR2WX
METAR K2WX 310956Z AUTO 31003KT 18/08 A3017 RMK AO1 SLP192 T01830078





000
SAUS43 KUNR 310957
MTRD07
METAR KD07 310956Z AUTO 00000KT 15/10 A3019 RMK AO1 SLP210 T01500100





000
SAUS43 KUNR 310858
MTR2WX
METAR K2WX 310856Z AUTO 00000KT 18/08 A3017 RMK AO1 SLP193 T01830078
51001





000
SAUS43 KUNR 310858
MTR2WX
METAR K2WX 310856Z AUTO 00000KT 18/08 A3017 RMK AO1 SLP193 T01830078
51001





000
SAUS43 KUNR 310857
MTRD07
METAR KD07 310856Z AUTO 16010KT 16/10 A3019 RMK AO1 SLP209 T01610100
58003





000
SAUS43 KUNR 310758
MTRD07
METAR KD07 310756Z AUTO 14008KT 18/10 A3019 RMK AO1 SLP208 T01830100





000
SAUS43 KUNR 310757
MTR2WX
METAR K2WX 310756Z AUTO 31003KT 18/08 A3017 RMK AO1 SLP193 T01780083





000
SAUS43 KUNR 310657
MTR2WX
METAR K2WX 310656Z AUTO 00000KT 18/09 A3018 RMK AO1 SLP195 T01830089
403170106





000
SAUS43 KUNR 310657
MTR2WX
METAR K2WX 310656Z AUTO 00000KT 18/09 A3018 RMK AO1 SLP195 T01830089
403170106





000
SAUS43 KUNR 310657
MTRD07
METAR KD07 310656Z AUTO 13009KT 20/09 A3020 RMK AO1 SLP210 T02000094
403280128





000
SAUS43 KUNR 310557
MTR2WX
METAR K2WX 310556Z AUTO 00000KT 17/09 A3017 RMK AO1 SLP195 T01720089
10306 20172 51011





000
SAUS43 KUNR 310557
MTR2WX
METAR K2WX 310556Z AUTO 00000KT 17/09 A3017 RMK AO1 SLP195 T01720089
10306 20172 51011





000
SAUS43 KUNR 310557
MTRD07
METAR KD07 310556Z AUTO 12009KT 21/09 A3020 RMK AO1 SLP208 T02060089
10317 20189 51010





000
SAUS43 KUNR 310557
MTRD07
METAR KD07 310556Z AUTO 12009KT 21/09 A3020 RMK AO1 SLP208 T02060089
10317 20189 51010





000
SAUS43 KUNR 310457
MTR2WX
METAR K2WX 310456Z AUTO 04006KT 20/08 A3016 RMK AO1 SLP191 T02000083





000
SAUS43 KUNR 310457
MTRD07
METAR KD07 310456Z AUTO 21/09 A3019 RMK AO1 SLP207 T02060089





000
SAUS43 KUNR 310358
MTR2WX
METAR K2WX 310356Z AUTO 04007KT 21/09 A3016 RMK AO1 SLP188 T02060094





000
SAUS43 KUNR 310358
MTRD07
METAR KD07 310356Z AUTO 09008KT 19/09 A3018 RMK AO1 SLP207 T01940089





000
SAUS43 KUNR 310258
MTR2WX
METAR K2WX 310256Z AUTO 07010KT 22/09 A3013 RMK AO1 SLP184 T02220089
53005





000
SAUS43 KUNR 310258
MTR2WX
METAR K2WX 310256Z AUTO 07010KT 22/09 A3013 RMK AO1 SLP184 T02220089
53005





000
SAUS43 KUNR 310257
MTRD07
METAR KD07 310256Z AUTO 08007KT 21/09 A3017 RMK AO1 SLP202 T02060089
53006





000
SAUS43 KUNR 310157
MTRD07
METAR KD07 310156Z AUTO 03009KT 26/08 A3015 RMK AO1 SLP195 T02560078





000
SAUS43 KUNR 310157
MTR2WX
METAR K2WX 310156Z AUTO 07010KT 24/09 A3012 RMK AO1 SLP180 T02440094





000
SAUS43 KUNR 310058
MTRD07
METAR KD07 310056Z AUTO 02011KT 30/06 A3014 RMK AO1 SLP193 T03000056





000
SAUS43 KUNR 310057
MTR2WX
METAR K2WX 310056Z AUTO 36006KT 30/05 A3012 RMK AO1 SLP179 T03000050





000
SAUS43 KUNR 302358
MTRD07
METAR KD07 302356Z AUTO 35010KT 32/04 A3015 RMK AO1 SLP195 T03170039
10328 20306 56008





000
SAUS43 KUNR 302358
MTRD07
METAR KD07 302356Z AUTO 35010KT 32/04 A3015 RMK AO1 SLP195 T03170039
10328 20306 56008





000
SAUS43 KUNR 302357
MTR2WX
METAR K2WX 302356Z AUTO 32011KT 31/04 A3012 RMK AO1 SLP180 T03060039
10317 20294 56008





000
SAUS43 KUNR 302357
MTR2WX
METAR K2WX 302356Z AUTO 32011KT 31/04 A3012 RMK AO1 SLP180 T03060039
10317 20294 56008





000
SAUS43 KUNR 302258
MTRD07
METAR KD07 302256Z AUTO 29004KT 32/02 A3015 RMK AO1 SLP196 T03220022





000
SAUS43 KUNR 302258
MTRD07
METAR KD07 302256Z AUTO 29004KT 32/02 A3015 RMK AO1 SLP196 T03220022





000
SAUS43 KUNR 302257
MTR2WX
METAR K2WX 302256Z AUTO 30017G22KT 32/04 A3013 RMK AO1 PK WND
31027/2217 SLP182 T03170039





000
SAUS43 KUNR 302257
MTR2WX
METAR K2WX 302256Z AUTO 30017G22KT 32/04 A3013 RMK AO1 PK WND
31027/2217 SLP182 T03170039





000
SAUS43 KUNR 302158
MTRD07
METAR KD07 302156Z AUTO 27009KT 32/03 A3016 RMK AO1 SLP197 T03220028





000
SAUS43 KUNR 302157
MTR2WX
METAR K2WX 302156Z AUTO 30010KT 31/03 A3013 RMK AO1 SLP181 T03110033





000
SAUS43 KUNR 302057
MTR2WX
METAR K2WX 302056Z AUTO 28017G23KT 32/03 A3015 RMK AO1 SLP188
T03170033 57007





000
SAUS43 KUNR 302057
MTRD07
METAR KD07 302056Z AUTO 30010KT 32/02 A3017 RMK AO1 SLP201 T03170017
58010





000
SAUS43 KUNR 301958
MTRD07
METAR KD07 301956Z AUTO 27010G18KT 32/03 A3019 RMK AO1 SLP205
T03170028





000
SAUS43 KUNR 301957
MTR2WX
METAR K2WX 301956Z AUTO 29012G19KT 32/04 A3016 RMK AO1 SLP189
T03170044





000
SAUS43 KUNR 301957
MTR2WX
METAR K2WX 301956Z AUTO 29012G19KT 32/04 A3016 RMK AO1 SLP189
T03170044





000
SAUS43 KUNR 301903 COR
MTR2WX
METAR K2WX 301856Z AUTO 29012G18KT 31/04 A3016 RMK AO1 PK WND
34028/1825 SLP192 T03060044





000
SAUS43 KUNR 301859 COR
MTR2WX
METAR K2WX 301856Z AUTO 29012G18KT 31/04 A3016 RMK AO1 PK WND
34028/1825 SLP192 T03060044





000
SAUS43 KUNR 301859 COR
MTR2WX
METAR K2WX 301856Z AUTO 29012G18KT 31/04 A3016 RMK AO1 PK WND
34028/1825 SLP192 T03060044





000
SAUS43 KUNR 301858
MTRD07
METAR KD07 301856Z AUTO 32009KT 31/03 A3020 RMK AO1 SLP208 T03110028





000
SAUS43 KUNR 301858
MTRD07
METAR KD07 301856Z AUTO 32009KT 31/03 A3020 RMK AO1 SLP208 T03110028





000
SAUS43 KUNR 301758
MTR2WX
METAR K2WX 301756Z AUTO 28013G20KT 240V300 29/03 A3017 RMK AO1
SLP194 T02940033 10300 20106 55002





000
SAUS43 KUNR 301758
MTR2WX
METAR K2WX 301756Z AUTO 28013G20KT 240V300 29/03 A3017 RMK AO1
SLP194 T02940033 10300 20106 55002





000
SAUS43 KUNR 301757
MTRD07
METAR KD07 301756Z AUTO 29008KT 31/03 A3021 RMK AO1 SLP208 T03110028
10311 20133 55000





000
SAUS43 KUNR 301757
MTRD07
METAR KD07 301756Z AUTO 29008KT 31/03 A3021 RMK AO1 SLP208 T03110028
10311 20133 55000





000
SAUS43 KUNR 301658
MTR2WX
METAR K2WX 301656Z AUTO 29009KT 28/03 A3017 RMK AO1 SLP193 T02830033





000
SAUS43 KUNR 301657
MTRD07
METAR KD07 301656Z AUTO 29011KT 29/03 A3021 RMK AO1 SLP210 T02940033





000
SAUS43 KUNR 301657
MTRD07
METAR KD07 301656Z AUTO 29011KT 29/03 A3021 RMK AO1 SLP210 T02940033





000
SAUS43 KUNR 301558
MTR2WX
METAR K2WX 301556Z AUTO 30010G17KT 260V360 28/04 A3016 RMK AO1
SLP190 T02780039





000
SAUS43 KUNR 301558
MTR2WX
METAR K2WX 301556Z AUTO 30010G17KT 260V360 28/04 A3016 RMK AO1
SLP190 T02780039





000
SAUS43 KUNR 301557
MTRD07
METAR KD07 301556Z AUTO 28007KT 28/07 A3020 RMK AO1 SLP211 T02780067





000
SAUS43 KUNR 301557
MTRD07
METAR KD07 301556Z AUTO 28007KT 28/07 A3020 RMK AO1 SLP211 T02780067





000
SAUS43 KUNR 301458
MTRD07
METAR KD07 301456Z AUTO 28005KT 24/07 A3021 RMK AO1 SLP215 T02390072
50005





000
SAUS43 KUNR 301458
MTRD07
METAR KD07 301456Z AUTO 28005KT 24/07 A3021 RMK AO1 SLP215 T02390072
50005





000
SAUS43 KUNR 301457
MTR2WX
METAR K2WX 301456Z AUTO 20003KT 22/09 A3017 RMK AO1 SLP198 T02220089
51006





000
SAUS43 KUNR 301457
MTR2WX
METAR K2WX 301456Z AUTO 20003KT 22/09 A3017 RMK AO1 SLP198 T02220089
51006





000
SAUS43 KUNR 301357
MTR2WX
METAR K2WX 301356Z AUTO 24004KT 18/08 A3017 RMK AO1 SLP198 T01830083





000
SAUS43 KUNR 301357
MTRD07
METAR KD07 301356Z AUTO 29008KT 19/08 A3021 RMK AO1 SLP217 T01940078





000
SAUS43 KUNR 301357
MTRD07
METAR KD07 301356Z AUTO 29008KT 19/08 A3021 RMK AO1 SLP217 T01940078





000
SAUS43 KUNR 301357
MTR2WX
METAR K2WX 301356Z AUTO 24004KT 18/08 A3017 RMK AO1 SLP198 T01830083





000
SAUS43 KUNR 301258
MTR2WX
METAR K2WX 301256Z AUTO 27005KT 13/04 A3016 RMK AO1 SLP198 T01280044





000
SAUS43 KUNR 301257
MTRD07
METAR KD07 301256Z AUTO 32005KT 15/08 A3020 RMK AO1 SLP215 T01500078





000
SAUS43 KUNR 301158
MTR2WX
METAR K2WX 301156Z AUTO 26006KT 12/04 A3015 RMK AO1 SLP195 T01220044
10172 20106 53000





000
SAUS43 KUNR 301157
MTRD07
METAR KD07 301156Z AUTO 35004KT 13/05 A3019 RMK AO1 SLP211 T01330050
10228 20128 53003





000
SAUS43 KUNR 301157
MTRD07
METAR KD07 301156Z AUTO 35004KT 13/05 A3019 RMK AO1 SLP211 T01330050
10228 20128 53003





000
SAUS43 KUNR 301057
MTRD07
METAR KD07 301056Z AUTO 22006KT 15/04 A3018 RMK AO1 SLP207 T01500044





000
SAUS43 KUNR 301057
MTR2WX
METAR K2WX 301056Z AUTO 27007KT 14/04 A3015 RMK AO1 SLP192 T01390044





000
SAUS43 KUNR 300957
MTRD07
METAR KD07 300956Z AUTO 24003KT 17/04 A3018 RMK AO1 SLP205 T01670044





000
SAUS43 KUNR 300957
MTR2WX
METAR K2WX 300956Z AUTO 30007KT 15/04 A3015 RMK AO1 SLP191 T01500044





000
SAUS43 KUNR 300857
MTR2WX
METAR K2WX 300856Z AUTO 25006KT 13/04 A3015 RMK AO1 SLP194 T01330044
53006





000
SAUS43 KUNR 300857
MTRD07
METAR KD07 300856Z AUTO 00000KT 18/04 A3018 RMK AO1 SLP204 T01780039
51004





000
SAUS43 KUNR 300758
MTR2WX
METAR K2WX 300756Z AUTO 27004KT 16/04 A3014 RMK AO1 SLP188 T01610039





000
SAUS43 KUNR 300757
MTRD07
METAR KD07 300756Z AUTO 35004KT 19/04 A3018 RMK AO1 SLP204 T01940039





000
SAUS43 KUNR 300658
MTR2WX
METAR K2WX 300656Z AUTO 26005KT 15/05 A3014 RMK AO1 SLP190 T01500050
402830100





000
SAUS43 KUNR 300658
MTR2WX
METAR K2WX 300656Z AUTO 26005KT 15/05 A3014 RMK AO1 SLP190 T01500050
402830100





000
SAUS43 KUNR 300657
MTRD07
METAR KD07 300656Z AUTO 00000KT 19/04 A3018 RMK AO1 SLP205 T01940039
403000122





000
SAUS43 KUNR 300657
MTRD07
METAR KD07 300656Z AUTO 00000KT 19/04 A3018 RMK AO1 SLP205 T01940039
403000122





000
SAUS43 KUNR 300558
MTR2WX
METAR K2WX 300556Z AUTO 00000KT 17/04 A3013 RMK AO1 SLP185 T01670039
10272 20156 51011





000
SAUS43 KUNR 300558
MTR2WX
METAR K2WX 300556Z AUTO 00000KT 17/04 A3013 RMK AO1 SLP185 T01670039
10272 20156 51011





000
SAUS43 KUNR 300557
MTRD07
METAR KD07 300556Z AUTO 00000KT 23/03 A3017 RMK AO1 SLP198 T02280028
10289 20200 51009





000
SAUS43 KUNR 300557
MTRD07
METAR KD07 300556Z AUTO 00000KT 23/03 A3017 RMK AO1 SLP198 T02280028
10289 20200 51009





000
SAUS43 KUNR 300457
MTR2WX
METAR K2WX 300456Z AUTO 35005KT 19/04 A3012 RMK AO1 SLP181 T01890039





000
SAUS43 KUNR 300457
MTRD07
METAR KD07 300456Z AUTO 00000KT 23/04 A3016 RMK AO1 SLP197 T02280039





000
SAUS43 KUNR 300357
MTRD07
METAR KD07 300356Z AUTO 09004KT 22/06 A3015 RMK AO1 SLP197 T02170056





000
SAUS43 KUNR 300357
MTR2WX
METAR K2WX 300356Z AUTO 36008KT 22/03 A3011 RMK AO1 SLP177 T02170033





000
SAUS43 KUNR 300357
MTRD07
METAR KD07 300356Z AUTO 09004KT 22/06 A3015 RMK AO1 SLP197 T02170056





000
SAUS43 KUNR 300357
MTR2WX
METAR K2WX 300356Z AUTO 36008KT 22/03 A3011 RMK AO1 SLP177 T02170033





000
SAUS43 KUNR 300257
MTRD07
METAR KD07 300256Z AUTO 36007KT 20/06 A3014 RMK AO1 SLP194 T02000061
53007





000
SAUS43 KUNR 300257
MTR2WX
METAR K2WX 300256Z AUTO 33011KT 22/04 A3010 RMK AO1 SLP173 T02170039
53005





000
SAUS43 KUNR 300257
MTR2WX
METAR K2WX 300256Z AUTO 33011KT 22/04 A3010 RMK AO1 SLP173 T02170039
53005





000
SAUS43 KUNR 300257
MTRD07
METAR KD07 300256Z AUTO 36007KT 20/06 A3014 RMK AO1 SLP194 T02000061
53007





000
SAUS43 KUNR 300157
MTR2WX
METAR K2WX 300156Z AUTO 32009KT 23/04 A3009 RMK AO1 SLP173 T02330044





000
SAUS43 KUNR 300157
MTRD07
METAR KD07 300156Z AUTO 31005KT 24/06 A3012 RMK AO1 SLP188 T02390056





000
SAUS43 KUNR 300057
MTR2WX
METAR K2WX 300056Z AUTO 32015G21KT 27/03 A3008 RMK AO1 SLP168
T02670028





000
SAUS43 KUNR 300057
MTRD07
METAR KD07 300056Z AUTO 30007KT 28/02 A3012 RMK AO1 SLP185 T02780022





000
SAUS43 KUNR 292358
MTRD07
METAR KD07 292356Z AUTO 28014G23KT 29/01 A3011 RMK AO1 SLP186
T02890011 10300 20272 56008





000
SAUS43 KUNR 292357
MTR2WX
METAR K2WX 292356Z AUTO 28015KT 27/02 A3008 RMK AO1 SLP173 T02720022
10283 20250 56007





000
SAUS43 KUNR 292302 COR
MTRD07
METAR KD07 292256Z AUTO 28014G22KT 29/01 A3012 RMK AO1 PK WND
28026/2210 SLP187 T02940006





000
SAUS43 KUNR 292300 COR
MTRD07
METAR KD07 292256Z AUTO 28014G22KT 29/01 A3012 RMK AO1 PK WND
28026/2210 SLP187 T02940006





000
SAUS43 KUNR 292258
MTRD07
METAR KD07 292256Z AUTO 28014G22KT 29/01 A3012 RMK AO1 PK WND
28026/2210 SLP187 T02940006





000
SAUS43 KUNR 292258
MTRD07
METAR KD07 292256Z AUTO 28014G22KT 29/01 A3012 RMK AO1 PK WND
28026/2210 SLP187 T02940006





000
SAUS43 KUNR 292257
MTR2WX
METAR K2WX 292256Z AUTO 27017G25KT 28/03 A3009 RMK AO1 PK WND
25029/2226 SLP173 T02780028





000
SAUS43 KUNR 292257
MTR2WX
METAR K2WX 292256Z AUTO 27017G25KT 28/03 A3009 RMK AO1 PK WND
25029/2226 SLP173 T02780028





000
SAUS43 KUNR 292158
MTR2WX
METAR K2WX 292156Z AUTO 29020G25KT 28/03 A3010 RMK AO1 PK WND
30027/2139 SLP177 T02780028





000
SAUS43 KUNR 292158
MTR2WX
METAR K2WX 292156Z AUTO 29020G25KT 28/03 A3010 RMK AO1 PK WND
30027/2139 SLP177 T02780028





000
SAUS43 KUNR 292157
MTRD07
METAR KD07 292156Z AUTO 28019G42KT 29/01 A3013 RMK AO1 PK WND
28042/2149 SLP188 T02940006





000
SAUS43 KUNR 292103 COR
MTR2WX
METAR K2WX 292056Z AUTO 28023G29KT 28/03 A3011 RMK AO1 PK WND
25030/2008 SLP178 T02780033 58008





000
SAUS43 KUNR 292058 COR
MTR2WX
METAR K2WX 292056Z AUTO 28023G29KT 28/03 A3011 RMK AO1 PK WND
25030/2008 SLP178 T02780033 58008





000
SAUS43 KUNR 292058 COR
MTR2WX
METAR K2WX 292056Z AUTO 28023G29KT 28/03 A3011 RMK AO1 PK WND
25030/2008 SLP178 T02780033 58008





000
SAUS43 KUNR 292057
MTRD07
METAR KD07 292056Z AUTO 27015G24KT 29/01 A3014 RMK AO1 PK WND
29030/2039 SLP194 T02890006 56008





    US Dept of Commerce
    National Oceanic and Atmospheric Administration
    National Weather Service
    1325 East West Highway
    Silver Spring, MD 20910
    Page Author: NWS Internet Services Team
Disclaimer
Information Quality
Credits
Glossary
Privacy Policy
Freedom of Information Act (FOIA)
About Us
Career Opportunities